Time;durP1;ratioP1;P1;durP2;ratioP2;P2;SDS_P1;SDS_P2;PMS_P1;PMS_P2;Temp;Humidity;BMP_temperature;BMP_pressure;BME280_temperature;BME280_humidity;BME280_pressure;Samples;Min_cycle;Max_cycle;Signal;HPM_P1;HPM_P2
2021/10/20 00:00:42;;;;;;;2.15;0.77;;;14.90;99.90;;;;;;5058792;28;20024;-71
2021/10/20 00:03:07;;;;;;;0.10;0.10;;;14.90;99.90;;;;;;5051492;28;20391;-71
2021/10/20 00:05:33;;;;;;;0.30;0.30;;;14.80;99.90;;;;;;5063173;28;20016;-70
2021/10/20 00:08:00;;;;;;;0.65;0.65;;;14.80;99.90;;;;;;5054194;28;20052;-71
2021/10/20 00:10:25;;;;;;;0.20;0.20;;;14.80;99.90;;;;;;5056534;28;20037;-70
2021/10/20 00:12:51;;;;;;;0.32;0.20;;;14.80;99.90;;;;;;5065366;28;20429;-71
2021/10/20 00:15:20;;;;;;;0.10;0.10;;;14.80;99.90;;;;;;5064622;28;20029;-71
2021/10/20 00:17:45;;;;;;;1.17;0.60;;;14.80;99.90;;;;;;5060428;28;20029;-71
2021/10/20 00:20:15;;;;;;;0.17;0.17;;;14.80;99.90;;;;;;5057836;28;20044;-71
2021/10/20 00:22:41;;;;;;;0.63;0.63;;;14.80;99.90;;;;;;5070915;28;20074;-70
2021/10/20 00:25:08;;;;;;;0.25;0.22;;;14.70;99.90;;;;;;5066164;28;20498;-71
2021/10/20 00:27:33;;;;;;;0.03;0.03;;;14.70;99.90;;;;;;5062918;28;20024;-71
2021/10/20 00:29:59;;;;;;;0.20;0.20;;;14.60;99.90;;;;;;5058015;28;20059;-71
2021/10/20 00:32:24;;;;;;;0.75;0.68;;;14.60;99.90;;;;;;5066193;28;20131;-72
2021/10/20 00:34:50;;;;;;;0.40;0.40;;;14.60;99.90;;;;;;5064646;28;20454;-71
2021/10/20 00:37:16;;;;;;;0.45;0.40;;;14.60;99.90;;;;;;5060694;28;20072;-71
2021/10/20 00:39:41;;;;;;;0.32;0.28;;;14.60;99.90;;;;;;5061686;28;20025;-71
2021/10/20 00:42:07;;;;;;;0.10;0.10;;;14.60;99.90;;;;;;5056526;28;20017;-71
2021/10/20 00:44:53;;;;;;;0.80;0.63;;;14.60;99.90;;;;;;5061562;28;20358;-71
2021/10/20 00:47:19;;;;;;;7.28;0.85;;;14.60;99.90;;;;;;5056013;28;20033;-70
2021/10/20 00:49:45;;;;;;;3.58;0.80;;;14.50;99.90;;;;;;5064675;28;20044;-71
2021/10/20 00:52:11;;;;;;;0.50;0.50;;;14.50;99.90;;;;;;5060546;28;20036;-71
2021/10/20 00:54:37;;;;;;;0.10;0.10;;;14.50;99.90;;;;;;5064318;28;20044;-70
2021/10/20 00:57:04;;;;;;;0.95;0.35;;;14.60;99.90;;;;;;5067817;28;20040;-71
2021/10/20 00:59:30;;;;;;;0.35;0.25;;;14.60;99.90;;;;;;5067901;28;20029;-70
2021/10/20 01:01:56;;;;;;;1.00;1.00;;;14.60;99.90;;;;;;5061325;28;20024;-70
2021/10/20 01:04:21;;;;;;;0.35;0.35;;;14.60;99.90;;;;;;5061490;28;20016;-70
2021/10/20 01:06:47;;;;;;;0.80;0.80;;;14.60;99.90;;;;;;5062731;28;20024;-70
2021/10/20 01:09:12;;;;;;;0.30;0.30;;;14.60;99.90;;;;;;5065142;28;20044;-71
2021/10/20 01:11:38;;;;;;;0.75;0.47;;;14.60;99.90;;;;;;5059529;28;20184;-70
2021/10/20 01:14:03;;;;;;;1.00;1.00;;;14.60;99.90;;;;;;5066101;28;20157;-71
2021/10/20 01:16:29;;;;;;;0.30;0.30;;;14.60;99.90;;;;;;5069134;28;20036;-70
2021/10/20 01:18:55;;;;;;;0.50;0.50;;;14.50;99.90;;;;;;5067373;28;20151;-71
2021/10/20 01:21:21;;;;;;;0.45;0.45;;;14.50;99.90;;;;;;5066395;28;20029;-70
2021/10/20 01:23:48;;;;;;;0.28;0.28;;;14.50;99.90;;;;;;5069281;28;20561;-71
2021/10/20 01:26:15;;;;;;;0.30;0.28;;;14.50;99.90;;;;;;5068131;28;20101;-70
2021/10/20 01:28:41;;;;;;;0.40;0.40;;;14.50;99.90;;;;;;5057870;28;20511;-71
2021/10/20 01:31:07;;;;;;;2.10;0.50;;;14.50;99.90;;;;;;5068076;28;20369;-70
2021/10/20 01:33:32;;;;;;;1.23;0.95;;;14.50;99.90;;;;;;5068748;28;20074;-70
2021/10/20 01:35:58;;;;;;;0.88;0.88;;;14.50;99.90;;;;;;5067625;28;20033;-70
2021/10/20 01:38:23;;;;;;;1.25;0.82;;;14.40;99.90;;;;;;5068199;28;20028;-70
2021/10/20 01:40:49;;;;;;;0.30;0.30;;;14.40;99.90;;;;;;5063292;28;20068;-71
2021/10/20 01:43:14;;;;;;;1.38;0.85;;;14.50;99.90;;;;;;5064615;28;20532;-71
2021/10/20 01:45:40;;;;;;;2.80;1.80;;;14.40;99.90;;;;;;5061463;28;20028;-71
2021/10/20 01:48:05;;;;;;;1.38;0.73;;;14.40;99.90;;;;;;5064517;28;20115;-71
2021/10/20 01:50:31;;;;;;;1.13;0.52;;;14.50;99.90;;;;;;5065166;28;20052;-71
2021/10/20 01:52:56;;;;;;;2.25;0.90;;;14.50;99.90;;;;;;5063830;28;20029;-70
2021/10/20 01:55:22;;;;;;;4.90;2.88;;;14.50;99.90;;;;;;5067992;28;20064;-71
2021/10/20 01:57:48;;;;;;;1.23;1.13;;;14.50;99.90;;;;;;5064069;28;20534;-70
2021/10/20 02:00:14;;;;;;;6.85;1.55;;;14.50;99.90;;;;;;5067011;28;20032;-70
2021/10/20 02:02:41;;;;;;;0.70;0.70;;;14.50;99.90;;;;;;5066464;28;20025;-70
2021/10/20 02:05:09;;;;;;;0.63;0.63;;;14.50;99.90;;;;;;5067006;28;20024;-70
2021/10/20 02:07:34;;;;;;;2.30;1.40;;;14.40;99.90;;;;;;5063890;28;20028;-71
2021/10/20 02:10:01;;;;;;;2.00;1.15;;;14.40;99.90;;;;;;5068441;28;20038;-70
2021/10/20 02:12:27;;;;;;;1.63;1.52;;;14.40;99.90;;;;;;5066148;28;20066;-71
2021/10/20 02:14:52;;;;;;;1.20;1.17;;;14.50;99.90;;;;;;5068675;28;20051;-71
2021/10/20 02:17:17;;;;;;;0.77;0.77;;;14.40;99.90;;;;;;5067585;28;20031;-71
2021/10/20 02:19:43;;;;;;;0.90;0.88;;;14.40;99.90;;;;;;5063691;28;20020;-71
2021/10/20 02:22:09;;;;;;;5.38;2.42;;;14.40;99.90;;;;;;5066515;28;20472;-70
2021/10/20 02:24:34;;;;;;;0.63;0.63;;;14.30;99.90;;;;;;5067657;28;20020;-71
2021/10/20 02:27:00;;;;;;;0.68;0.68;;;14.30;99.90;;;;;;5068263;28;20030;-70
2021/10/20 02:29:25;;;;;;;1.55;1.42;;;14.40;99.90;;;;;;5068203;28;20068;-71
2021/10/20 02:31:51;;;;;;;1.05;0.95;;;14.40;99.90;;;;;;5068477;28;20086;-71
2021/10/20 02:34:19;;;;;;;1.58;1.42;;;14.30;99.90;;;;;;5067592;28;20020;-70
2021/10/20 02:36:44;;;;;;;0.70;0.70;;;14.40;99.90;;;;;;5058095;28;20033;-70
2021/10/20 02:39:10;;;;;;;1.40;1.00;;;14.40;99.90;;;;;;5068615;28;20410;-71
2021/10/20 02:41:36;;;;;;;1.95;1.80;;;14.30;99.90;;;;;;5067163;28;20079;-71
2021/10/20 02:44:02;;;;;;;2.20;1.48;;;14.30;99.90;;;;;;5068337;28;20020;-71
2021/10/20 02:46:29;;;;;;;1.42;1.33;;;14.30;99.90;;;;;;5066944;28;20504;-71
2021/10/20 02:48:54;;;;;;;3.63;1.63;;;14.30;99.90;;;;;;5068205;28;20036;-69
2021/10/20 02:51:19;;;;;;;2.00;1.85;;;14.20;99.90;;;;;;5064970;28;20043;-70
2021/10/20 02:53:45;;;;;;;1.10;1.10;;;14.20;99.90;;;;;;5048947;28;20028;-70
2021/10/20 02:56:10;;;;;;;1.80;1.25;;;14.20;99.90;;;;;;5063217;28;20024;-71
2021/10/20 02:58:36;;;;;;;1.45;0.73;;;14.20;99.90;;;;;;5067946;28;20383;-71
2021/10/20 03:01:01;;;;;;;2.63;0.88;;;14.20;99.90;;;;;;5057318;28;20036;-71
2021/10/20 03:03:27;;;;;;;1.38;1.25;;;14.20;99.90;;;;;;5068189;28;20494;-70
2021/10/20 03:05:52;;;;;;;0.75;0.63;;;14.20;99.90;;;;;;5067147;28;20064;-70
2021/10/20 03:08:18;;;;;;;0.40;0.40;;;14.20;99.90;;;;;;5067655;28;20035;-71
2021/10/20 03:10:43;;;;;;;0.45;0.45;;;14.20;99.90;;;;;;5058860;28;20108;-70
2021/10/20 03:13:09;;;;;;;2.13;1.95;;;14.20;99.90;;;;;;5055936;28;20454;-71
2021/10/20 03:15:34;;;;;;;1.00;0.95;;;14.10;99.90;;;;;;5066889;28;20033;-71
2021/10/20 03:18:00;;;;;;;0.98;0.93;;;14.10;99.90;;;;;;5067772;28;20103;-71
2021/10/20 03:20:25;;;;;;;1.38;1.00;;;14.10;99.90;;;;;;5066211;28;20028;-70
2021/10/20 03:22:51;;;;;;;1.98;1.58;;;14.10;99.90;;;;;;5067648;28;20472;-71
2021/10/20 03:25:16;;;;;;;1.92;1.25;;;14.10;99.90;;;;;;5065019;28;20028;-71
2021/10/20 03:27:43;;;;;;;0.90;0.90;;;14.10;99.90;;;;;;5060383;28;20021;-70
2021/10/20 03:30:09;;;;;;;0.52;0.52;;;14.10;99.90;;;;;;5061082;28;20071;-70
2021/10/20 03:32:34;;;;;;;0.73;0.73;;;14.10;99.90;;;;;;5056030;28;20079;-70
2021/10/20 03:35:00;;;;;;;6.00;2.20;;;14.10;99.90;;;;;;5066655;28;20028;-71
2021/10/20 03:37:25;;;;;;;1.50;0.75;;;14.10;99.90;;;;;;5056112;28;20386;-70
2021/10/20 03:39:51;;;;;;;5.13;1.33;;;14.10;99.90;;;;;;5067288;28;20016;-70
2021/10/20 03:42:16;;;;;;;1.58;1.17;;;14.10;99.90;;;;;;5060956;28;20079;-71
2021/10/20 03:44:42;;;;;;;0.82;0.82;;;14.10;99.90;;;;;;5060654;28;20060;-71
2021/10/20 03:47:07;;;;;;;1.05;0.95;;;14.10;99.90;;;;;;5066970;28;20081;-70
2021/10/20 03:49:33;;;;;;;1.27;1.17;;;14.10;99.90;;;;;;5067476;28;20021;-70
2021/10/20 03:51:58;;;;;;;1.90;1.42;;;14.10;99.90;;;;;;5058744;28;20028;-70
2021/10/20 03:54:24;;;;;;;0.88;0.82;;;14.10;99.90;;;;;;5064417;28;20059;-71
2021/10/20 03:56:49;;;;;;;1.10;1.10;;;14.10;99.90;;;;;;5066544;28;20033;-71
2021/10/20 03:59:15;;;;;;;2.40;1.20;;;14.10;99.90;;;;;;5054920;28;20079;-70
2021/10/20 04:01:40;;;;;;;1.58;0.85;;;14.10;99.90;;;;;;5059060;28;20017;-70
2021/10/20 04:04:05;;;;;;;1.17;1.08;;;14.10;99.90;;;;;;5066050;28;20017;-70
2021/10/20 04:06:31;;;;;;;0.82;0.82;;;14.10;99.90;;;;;;5081195;28;20035;-71
2021/10/20 04:08:56;;;;;;;2.75;1.80;;;14.10;99.90;;;;;;5071487;28;20082;-71
2021/10/20 04:11:22;;;;;;;0.68;0.68;;;14.10;99.90;;;;;;5070719;28;20573;-71
2021/10/20 04:13:47;;;;;;;0.60;0.60;;;14.10;99.90;;;;;;5064110;28;20056;-71
2021/10/20 04:16:13;;;;;;;1.52;1.05;;;14.10;99.90;;;;;;5068298;28;20032;-70
2021/10/20 04:18:38;;;;;;;0.55;0.55;;;14.10;99.90;;;;;;5069950;28;20120;-70
2021/10/20 04:21:04;;;;;;;3.22;1.45;;;14.10;99.90;;;;;;5061245;28;20024;-70
2021/10/20 04:23:29;;;;;;;1.27;1.13;;;14.00;99.90;;;;;;5068709;28;20558;-71
2021/10/20 04:25:55;;;;;;;0.45;0.45;;;14.10;99.90;;;;;;5071141;28;20544;-70
2021/10/20 04:28:20;;;;;;;0.50;0.50;;;14.10;99.90;;;;;;5069599;28;20032;-70
2021/10/20 04:30:46;;;;;;;2.75;1.08;;;14.10;99.90;;;;;;5070789;28;20527;-71
2021/10/20 04:33:12;;;;;;;1.30;1.20;;;14.10;99.90;;;;;;5068680;28;20049;-71
2021/10/20 04:35:38;;;;;;;1.35;0.95;;;14.00;99.90;;;;;;5057892;28;20047;-70
2021/10/20 04:38:03;;;;;;;1.35;1.25;;;14.00;99.90;;;;;;5065881;28;20108;-71
2021/10/20 04:40:29;;;;;;;1.02;1.02;;;14.00;99.90;;;;;;5070482;28;20689;-71
2021/10/20 04:42:54;;;;;;;4.70;0.80;;;14.10;99.90;;;;;;5065726;28;20071;-71
2021/10/20 04:45:20;;;;;;;1.63;0.70;;;14.10;99.90;;;;;;5070120;28;20085;-71
2021/10/20 04:47:45;;;;;;;0.73;0.73;;;14.10;99.90;;;;;;5069812;28;20037;-71
2021/10/20 04:50:11;;;;;;;3.65;1.38;;;14.00;99.90;;;;;;5070521;28;20031;-71
2021/10/20 04:52:37;;;;;;;0.60;0.60;;;14.00;99.90;;;;;;5059656;28;20033;-71
2021/10/20 04:55:04;;;;;;;0.60;0.60;;;14.00;99.90;;;;;;5069507;28;20036;-71
2021/10/20 04:57:30;;;;;;;1.08;0.98;;;14.00;99.90;;;;;;5069090;28;20033;-71
2021/10/20 04:59:55;;;;;;;2.83;1.40;;;14.00;99.90;;;;;;5069886;28;20077;-71
2021/10/20 05:02:21;;;;;;;0.82;0.80;;;14.00;99.90;;;;;;5067564;28;20024;-71
2021/10/20 05:04:46;;;;;;;0.82;0.82;;;14.00;99.90;;;;;;5070075;28;20016;-71
2021/10/20 05:07:13;;;;;;;0.38;0.38;;;14.00;99.90;;;;;;5056775;28;20029;-70
2021/10/20 05:09:38;;;;;;;0.82;0.82;;;14.00;99.90;;;;;;5057524;28;20058;-71
2021/10/20 05:12:06;;;;;;;0.95;0.93;;;14.00;99.90;;;;;;5059328;28;20094;-71
2021/10/20 05:14:31;;;;;;;2.53;1.33;;;13.90;99.90;;;;;;5056548;28;20021;-71
2021/10/20 05:16:57;;;;;;;0.50;0.50;;;14.00;99.90;;;;;;5059902;28;20032;-71
2021/10/20 05:19:22;;;;;;;1.05;1.00;;;14.00;99.90;;;;;;5069798;28;20029;-71
2021/10/20 05:21:48;;;;;;;0.80;0.80;;;14.00;99.90;;;;;;5057514;28;20424;-70
2021/10/20 05:24:13;;;;;;;2.70;1.45;;;14.00;99.90;;;;;;5060721;28;20037;-70
2021/10/20 05:26:39;;;;;;;0.80;0.80;;;14.00;99.90;;;;;;5054629;28;20551;-71
2021/10/20 05:29:04;;;;;;;1.05;0.95;;;14.00;99.90;;;;;;5062658;28;20352;-71
2021/10/20 05:31:30;;;;;;;0.82;0.82;;;14.00;99.90;;;;;;5060950;28;20028;-71
2021/10/20 05:33:55;;;;;;;0.20;0.20;;;14.10;99.90;;;;;;5068646;28;20028;-71
2021/10/20 05:36:23;;;;;;;0.63;0.40;;;14.00;99.90;;;;;;5067941;28;20497;-71
2021/10/20 05:38:48;;;;;;;1.40;1.33;;;14.00;99.90;;;;;;5068043;28;20074;-70
2021/10/20 05:41:14;;;;;;;1.15;1.05;;;14.00;99.90;;;;;;5063661;28;20025;-70
2021/10/20 05:43:39;;;;;;;2.25;1.00;;;14.00;99.90;;;;;;5065706;28;20036;-71
2021/10/20 05:46:05;;;;;;;1.75;0.93;;;14.00;99.90;;;;;;5067494;28;20037;-70
2021/10/20 05:48:30;;;;;;;1.38;1.27;;;14.00;99.90;;;;;;5068386;28;20082;-71
2021/10/20 05:50:56;;;;;;;1.15;0.80;;;14.00;99.90;;;;;;5065048;28;20465;-70
2021/10/20 05:53:21;;;;;;;1.15;0.95;;;14.00;99.90;;;;;;5062661;28;20029;-71
2021/10/20 05:55:47;;;;;;;1.15;0.80;;;14.00;99.90;;;;;;5051796;28;20025;-70
2021/10/20 05:58:13;;;;;;;0.90;0.45;;;14.00;99.90;;;;;;5064895;28;20024;-71
2021/10/20 06:00:39;;;;;;;0.90;0.80;;;14.00;99.90;;;;;;5052689;28;20021;-70
2021/10/20 06:03:05;;;;;;;1.00;0.50;;;14.00;99.90;;;;;;5059014;28;20023;-71
2021/10/20 06:05:31;;;;;;;0.98;0.80;;;14.00;99.90;;;;;;5066513;28;20033;-72
2021/10/20 06:07:57;;;;;;;0.77;0.77;;;14.00;99.90;;;;;;5062683;28;20510;-70
2021/10/20 06:10:23;;;;;;;0.57;0.57;;;14.00;99.90;;;;;;5065942;28;20029;-70
2021/10/20 06:12:49;;;;;;;1.75;0.98;;;14.00;99.90;;;;;;5065435;28;20225;-70
2021/10/20 06:15:15;;;;;;;0.60;0.52;;;14.00;99.90;;;;;;5055747;28;20036;-70
2021/10/20 06:17:40;;;;;;;1.67;1.30;;;14.10;99.90;;;;;;5065798;28;20021;-69
2021/10/20 06:20:07;;;;;;;2.85;0.28;;;14.10;99.90;;;;;;5067219;28;20047;-70
2021/10/20 06:22:33;;;;;;;0.60;0.60;;;14.10;99.90;;;;;;5065053;28;20044;-70
2021/10/20 06:24:59;;;;;;;0.38;0.38;;;14.10;99.90;;;;;;5061309;28;20036;-70
2021/10/20 06:27:25;;;;;;;1.02;0.22;;;14.10;99.90;;;;;;5067143;28;20105;-70
2021/10/20 06:29:51;;;;;;;0.95;0.95;;;14.20;99.90;;;;;;5066042;28;20027;-71
2021/10/20 06:32:17;;;;;;;1.08;0.50;;;14.20;99.90;;;;;;5066343;28;20267;-70
2021/10/20 06:34:43;;;;;;;0.28;0.28;;;14.10;99.90;;;;;;5062827;28;20507;-70
2021/10/20 06:37:08;;;;;;;0.50;0.50;;;14.20;99.90;;;;;;5067656;28;20031;-70
2021/10/20 06:39:34;;;;;;;1.70;1.33;;;14.10;99.90;;;;;;5053530;28;20021;-71
2021/10/20 06:41:59;;;;;;;1.83;1.10;;;14.20;99.90;;;;;;5057096;28;20017;-70
2021/10/20 06:44:26;;;;;;;0.43;0.43;;;14.10;99.90;;;;;;5067509;28;20410;-70
2021/10/20 06:46:51;;;;;;;0.40;0.40;;;14.20;99.90;;;;;;5067063;28;20097;-70
2021/10/20 06:49:17;;;;;;;2.30;1.27;;;14.20;99.90;;;;;;5066672;28;20476;-70
2021/10/20 06:51:43;;;;;;;0.90;0.90;;;14.20;99.90;;;;;;5067150;28;20004;-71
2021/10/20 06:54:11;;;;;;;1.85;0.38;;;14.20;99.90;;;;;;5067412;28;20032;-70
2021/10/20 06:56:36;;;;;;;0.57;0.57;;;14.20;99.90;;;;;;5066424;28;20364;-70
2021/10/20 06:59:02;;;;;;;0.20;0.20;;;14.20;99.90;;;;;;5066207;28;20016;-70
2021/10/20 07:01:27;;;;;;;0.50;0.35;;;14.20;99.90;;;;;;5066811;28;20025;-70
2021/10/20 07:03:53;;;;;;;0.50;0.43;;;14.30;99.90;;;;;;5066894;28;20510;-70
2021/10/20 07:06:18;;;;;;;0.10;0.10;;;14.30;99.90;;;;;;5066573;28;20028;-71
2021/10/20 07:08:43;;;;;;;0.95;0.95;;;14.30;99.90;;;;;;5066832;28;20425;-71
2021/10/20 07:11:09;;;;;;;0.30;0.30;;;14.30;99.90;;;;;;5066985;28;20082;-70
2021/10/20 07:13:34;;;;;;;0.63;0.63;;;14.30;99.90;;;;;;5066599;28;20115;-70
2021/10/20 07:16:00;;;;;;;0.80;0.80;;;14.30;99.90;;;;;;5066626;28;20111;-70
2021/10/20 07:18:27;;;;;;;0.70;0.70;;;14.30;99.90;;;;;;5067639;28;20033;-70
2021/10/20 07:20:53;;;;;;;0.75;0.75;;;14.30;99.90;;;;;;5066856;28;20029;-70
2021/10/20 07:23:19;;;;;;;1.15;0.50;;;14.30;99.90;;;;;;5066173;28;20036;-70
2021/10/20 07:25:45;;;;;;;0.20;0.17;;;14.30;99.90;;;;;;5066485;28;20049;-70
2021/10/20 07:28:10;;;;;;;0.15;0.15;;;14.30;99.90;;;;;;5067204;28;20491;-70
2021/10/20 07:30:37;;;;;;;1.00;0.57;;;14.40;99.90;;;;;;5066199;28;20108;-70
2021/10/20 07:33:06;;;;;;;0.32;0.32;;;14.40;99.90;;;;;;5067028;28;20072;-70
2021/10/20 07:35:31;;;;;;;1.90;0.60;;;14.50;99.90;;;;;;5069408;28;20025;-71
2021/10/20 07:37:57;;;;;;;0.88;0.88;;;14.50;99.90;;;;;;5070760;28;20364;-70
2021/10/20 07:40:22;;;;;;;0.10;0.10;;;14.60;99.90;;;;;;5070002;28;20020;-70
2021/10/20 07:42:48;;;;;;;0.40;0.40;;;14.60;99.90;;;;;;5070539;28;20021;-70
2021/10/20 07:45:18;;;;;;;0.47;0.47;;;14.60;99.90;;;;;;5070345;28;20471;-71
2021/10/20 07:47:46;;;;;;;0.25;0.25;;;14.60;99.90;;;;;;5070546;28;20029;-71
2021/10/20 07:50:12;;;;;;;0.52;0.52;;;14.70;99.90;;;;;;5070873;28;20446;-71
2021/10/20 07:52:39;;;;;;;1.50;1.30;;;14.70;99.90;;;;;;5070891;28;20107;-70
2021/10/20 07:55:06;;;;;;;2.88;0.77;;;14.80;99.90;;;;;;5070200;28;20371;-71
2021/10/20 07:57:32;;;;;;;0.17;0.17;;;14.80;99.90;;;;;;5069939;28;20025;-70
2021/10/20 07:59:57;;;;;;;0.65;0.65;;;14.80;99.90;;;;;;5070328;28;20065;-71
2021/10/20 08:02:23;;;;;;;0.47;0.47;;;14.90;99.90;;;;;;5070207;28;20364;-71
2021/10/20 08:04:48;;;;;;;0.52;0.30;;;14.90;99.90;;;;;;5070738;28;20244;-71
2021/10/20 08:07:14;;;;;;;0.32;0.32;;;15.00;99.90;;;;;;5070050;28;20470;-70
2021/10/20 08:09:40;;;;;;;0.38;0.38;;;15.10;99.90;;;;;;5070291;28;20024;-71
2021/10/20 08:12:06;;;;;;;0.45;0.45;;;15.20;99.90;;;;;;5069825;28;20035;-71
2021/10/20 08:14:33;;;;;;;2.70;0.80;;;15.30;99.90;;;;;;5069503;28;20098;-70
2021/10/20 08:16:59;;;;;;;0.47;0.47;;;15.50;99.90;;;;;;5070290;28;20032;-70
2021/10/20 08:19:24;;;;;;;0.85;0.45;;;15.70;99.90;;;;;;5069971;28;20030;-70
2021/10/20 08:21:49;;;;;;;1.27;0.55;;;15.80;99.90;;;;;;5069111;28;20100;-70
2021/10/20 08:24:15;;;;;;;0.38;0.38;;;16.00;99.90;;;;;;5069159;28;20048;-70
2021/10/20 08:26:40;;;;;;;0.80;0.80;;;16.00;99.90;;;;;;5070091;28;20503;-70
2021/10/20 08:29:08;;;;;;;0.75;0.73;;;16.10;99.90;;;;;;5069370;28;20123;-70
2021/10/20 08:31:33;;;;;;;0.40;0.40;;;16.20;99.90;;;;;;5069254;28;20030;-70
2021/10/20 08:33:59;;;;;;;0.25;0.20;;;16.30;99.90;;;;;;5069611;28;20032;-71
2021/10/20 08:36:24;;;;;;;0.70;0.57;;;16.40;99.90;;;;;;5069383;28;20044;-71
2021/10/20 08:38:50;;;;;;;2.92;0.20;;;16.50;99.90;;;;;;5055929;28;20032;-70
2021/10/20 08:41:15;;;;;;;0.25;0.25;;;16.50;99.90;;;;;;5069009;28;20025;-70
2021/10/20 08:43:41;;;;;;;0.10;0.10;;;16.60;99.90;;;;;;5069697;28;20024;-70
2021/10/20 08:46:06;;;;;;;0.35;0.35;;;16.60;99.90;;;;;;5068904;28;20024;-71
2021/10/20 08:48:32;;;;;;;0.10;0.10;;;16.60;99.20;;;;;;5068918;28;20254;-69
2021/10/20 08:51:00;;;;;;;2.42;0.63;;;16.60;99.00;;;;;;5051647;28;20028;-70
2021/10/20 08:53:26;;;;;;;0.65;0.28;;;16.50;99.30;;;;;;5069508;28;20024;-70
2021/10/20 08:55:53;;;;;;;0.20;0.20;;;16.50;99.20;;;;;;5069031;28;20044;-70
2021/10/20 08:58:21;;;;;;;0.25;0.25;;;16.60;99.10;;;;;;5068894;28;20111;-71
2021/10/20 09:00:47;;;;;;;0.70;0.70;;;16.60;98.60;;;;;;5068806;28;20074;-70
2021/10/20 09:03:13;;;;;;;0.10;0.10;;;16.70;98.30;;;;;;5068634;28;20024;-70
2021/10/20 09:05:39;;;;;;;1.95;1.55;;;16.70;98.50;;;;;;5068984;28;20034;-70
2021/10/20 09:08:06;;;;;;;0.80;0.52;;;16.70;97.60;;;;;;5069055;28;20028;-70
2021/10/20 09:10:32;;;;;;;0.08;0.08;;;16.80;96.80;;;;;;5068180;28;20509;-71
2021/10/20 09:12:59;;;;;;;0.35;0.35;;;16.80;96.60;;;;;;5069007;28;20032;-71
2021/10/20 09:15:28;;;;;;;2.35;0.70;;;16.90;96.10;;;;;;5069017;28;20039;-71
2021/10/20 09:17:58;;;;;;;0.70;0.70;;;17.00;96.30;;;;;;5068269;28;20028;-70
2021/10/20 09:20:30;;;;;;;0.40;0.40;;;17.00;96.50;;;;;;5068292;28;20024;-71
2021/10/20 09:23:08;;;;;;;0.47;0.20;;;17.10;95.50;;;;;;5068491;28;20285;-71
2021/10/20 09:25:43;;;;;;;0.20;0.20;;;17.10;95.50;;;;;;5067741;28;20289;-71
2021/10/20 09:28:19;;;;;;;0.15;0.15;;;17.00;94.80;;;;;;5060629;28;20035;-71
2021/10/20 09:30:45;;;;;;;2.05;0.98;;;17.00;95.10;;;;;;5067932;28;20107;-71
2021/10/20 09:33:11;;;;;;;0.25;0.25;;;16.90;95.40;;;;;;5068499;28;20131;-71
2021/10/20 09:35:37;;;;;;;0.28;0.28;;;16.80;95.00;;;;;;5067429;28;20032;-71
2021/10/20 09:38:04;;;;;;;0.82;0.70;;;16.80;95.30;;;;;;5067955;28;20036;-71
2021/10/20 09:40:38;;;;;;;0.28;0.28;;;16.70;95.10;;;;;;5067951;28;20472;-70
2021/10/20 09:43:05;;;;;;;0.20;0.20;;;16.70;95.10;;;;;;5068057;28;20036;-71
2021/10/20 09:45:37;;;;;;;0.45;0.45;;;16.70;95.40;;;;;;5067453;28;20475;-70
2021/10/20 09:48:11;;;;;;;0.50;0.50;;;16.70;95.50;;;;;;5067683;28;20053;-71
2021/10/20 09:50:52;;;;;;;0.43;0.43;;;16.70;95.20;;;;;;5067402;28;20050;-70
2021/10/20 09:53:18;;;;;;;0.85;0.60;;;16.70;95.40;;;;;;5067540;28;20213;-70
2021/10/20 09:55:43;;;;;;;0.30;0.28;;;16.70;95.30;;;;;;5067630;28;20025;-71
2021/10/20 09:58:14;;;;;;;0.10;0.10;;;16.70;94.70;;;;;;5066484;28;20065;-70
2021/10/20 10:00:41;;;;;;;2.33;0.77;;;16.70;94.80;;;;;;5067442;28;20458;-70
2021/10/20 10:03:07;;;;;;;0.20;0.20;;;16.60;94.80;;;;;;5067351;28;20070;-69
2021/10/20 10:05:34;;;;;;;0.30;0.28;;;16.70;95.00;;;;;;5067097;28;20035;-70
2021/10/20 10:07:59;;;;;;;0.30;0.30;;;16.70;95.40;;;;;;5067435;28;20107;-70
2021/10/20 10:10:25;;;;;;;0.20;0.20;;;16.70;96.20;;;;;;5067004;28;20166;-70
2021/10/20 10:12:56;;;;;;;1.33;0.68;;;16.70;97.10;;;;;;5067408;28;20024;-71
2021/10/20 10:15:23;;;;;;;0.35;0.17;;;16.60;97.90;;;;;;5067076;28;20031;-71
2021/10/20 10:17:55;;;;;;;0.75;0.73;;;16.60;98.80;;;;;;5066907;28;20029;-71
2021/10/20 10:20:21;;;;;;;3.03;0.77;;;16.60;98.90;;;;;;5066683;28;20016;-70
2021/10/20 10:22:53;;;;;;;0.55;0.52;;;16.60;98.40;;;;;;5066566;28;20119;-70
2021/10/20 10:25:40;;;;;;;0.93;0.80;;;16.70;98.00;;;;;;5066658;28;20040;-71
2021/10/20 10:28:20;;;;;;;1.17;0.55;;;16.70;98.10;;;;;;5059152;28;20064;-70
2021/10/20 10:31:01;;;;;;;0.20;0.20;;;16.70;97.90;;;;;;5066964;28;20034;-71
2021/10/20 10:33:29;;;;;;;0.45;0.45;;;16.70;98.30;;;;;;5067436;28;20039;-70
2021/10/20 10:36:16;;;;;;;1.40;0.93;;;16.70;98.30;;;;;;5066948;28;20107;-70
2021/10/20 10:38:44;;;;;;;0.28;0.22;;;16.70;98.20;;;;;;5067106;28;20021;-70
2021/10/20 10:41:43;;;;;;;0.95;0.90;;;16.80;97.90;;;;;;5067009;28;20028;-70
2021/10/20 10:44:29;;;;;;;0.10;0.10;;;16.90;97.80;;;;;;5047760;28;20516;-70
2021/10/20 10:47:15;;;;;;;0.40;0.40;;;16.80;97.80;;;;;;5066842;28;20082;-70
2021/10/20 10:49:46;;;;;;;1.85;0.40;;;16.80;97.50;;;;;;5067069;28;20100;-70
2021/10/20 10:52:17;;;;;;;0.20;0.20;;;16.80;97.60;;;;;;5067125;28;20028;-71
2021/10/20 10:55:06;;;;;;;2.05;0.63;;;16.80;97.90;;;;;;5066805;28;20036;-70
2021/10/20 10:57:38;;;;;;;0.32;0.32;;;16.70;97.60;;;;;;5043219;28;20048;-70
2021/10/20 11:00:10;;;;;;;0.45;0.45;;;16.70;97.60;;;;;;5066267;28;20372;-70
2021/10/20 11:02:39;;;;;;;0.50;0.50;;;16.70;97.40;;;;;;5065874;28;20063;-69
2021/10/20 11:05:05;;;;;;;0.47;0.47;;;16.60;97.80;;;;;;5066285;28;20057;-71
2021/10/20 11:07:32;;;;;;;1.15;0.63;;;16.50;98.00;;;;;;5065763;28;20028;-71
2021/10/20 11:10:00;;;;;;;1.63;1.13;;;16.40;98.20;;;;;;5048149;28;20494;-71
2021/10/20 11:12:25;;;;;;;3.60;0.63;;;16.40;98.20;;;;;;5066413;28;20048;-71
2021/10/20 11:14:55;;;;;;;1.27;0.70;;;16.40;98.30;;;;;;5066265;28;20132;-72
2021/10/20 11:17:21;;;;;;;2.88;0.47;;;16.50;97.70;;;;;;5065721;28;20028;-72
2021/10/20 11:19:47;;;;;;;0.35;0.35;;;16.60;97.90;;;;;;5066257;28;20017;-71
2021/10/20 11:22:21;;;;;;;0.40;0.40;;;16.60;97.60;;;;;;5065942;28;20027;-71
2021/10/20 11:24:49;;;;;;;1.35;0.57;;;16.70;97.50;;;;;;5065906;28;20112;-69
2021/10/20 11:27:15;;;;;;;0.70;0.70;;;16.80;97.40;;;;;;5065746;28;20032;-71
2021/10/20 11:29:48;;;;;;;0.50;0.50;;;16.90;96.70;;;;;;5066232;28;20052;-70
2021/10/20 11:32:15;;;;;;;0.47;0.40;;;16.90;96.70;;;;;;5065911;28;20033;-69
2021/10/20 11:34:43;;;;;;;0.52;0.52;;;16.90;96.80;;;;;;5066286;28;20127;-70
2021/10/20 11:37:10;;;;;;;0.45;0.45;;;16.90;96.90;;;;;;5065939;28;20020;-71
2021/10/20 11:39:39;;;;;;;0.65;0.43;;;16.90;97.20;;;;;;5065233;28;20484;-72
2021/10/20 11:42:09;;;;;;;13.02;0.65;;;16.90;97.10;;;;;;5065715;28;20102;-72
2021/10/20 11:44:40;;;;;;;0.50;0.50;;;16.80;97.60;;;;;;5064567;28;20165;-71
2021/10/20 11:47:18;;;;;;;1.27;1.17;;;16.90;97.50;;;;;;5065756;28;20029;-72
2021/10/20 11:49:50;;;;;;;0.52;0.30;;;16.90;97.40;;;;;;5065758;28;20039;-72
2021/10/20 11:52:18;;;;;;;1.17;0.65;;;16.90;97.60;;;;;;5065776;28;20028;-72
2021/10/20 11:54:44;;;;;;;0.20;0.20;;;16.90;97.50;;;;;;5065862;28;20036;-72
2021/10/20 11:57:12;;;;;;;1.33;0.98;;;16.90;97.50;;;;;;5065961;28;20028;-71
2021/10/20 11:59:38;;;;;;;1.17;0.40;;;16.90;97.60;;;;;;5065436;28;20025;-71
2021/10/20 12:02:04;;;;;;;0.38;0.35;;;17.00;97.50;;;;;;5065987;28;20561;-71
2021/10/20 12:04:33;;;;;;;0.20;0.20;;;17.00;97.10;;;;;;5065993;28;20037;-71
2021/10/20 12:07:01;;;;;;;0.43;0.32;;;16.90;97.10;;;;;;5066420;28;20108;-72
2021/10/20 12:09:31;;;;;;;0.93;0.93;;;17.00;97.20;;;;;;5065930;28;20078;-71
2021/10/20 12:11:58;;;;;;;0.73;0.73;;;17.00;97.10;;;;;;5065943;28;20471;-71
2021/10/20 12:14:34;;;;;;;0.25;0.25;;;17.00;97.10;;;;;;5065432;28;20039;-72
2021/10/20 12:17:03;;;;;;;0.50;0.35;;;17.00;97.10;;;;;;5065549;28;20032;-71
2021/10/20 12:19:30;;;;;;;0.65;0.65;;;17.10;96.90;;;;;;5065872;28;20027;-72
2021/10/20 12:22:02;;;;;;;0.20;0.20;;;17.20;96.80;;;;;;5068438;28;20503;-71
2021/10/20 12:24:33;;;;;;;0.40;0.40;;;17.30;96.50;;;;;;5069311;28;20047;-71
2021/10/20 12:26:59;;;;;;;0.25;0.22;;;17.40;95.50;;;;;;5069254;28;20054;-72
2021/10/20 12:29:26;;;;;;;1.30;0.50;;;17.50;95.40;;;;;;5069633;28;20025;-71
2021/10/20 12:31:56;;;;;;;0.30;0.30;;;17.50;95.00;;;;;;5068973;28;20031;-72
2021/10/20 12:34:25;;;;;;;0.77;0.77;;;17.60;94.50;;;;;;5069072;28;20024;-71
2021/10/20 12:36:51;;;;;;;0.40;0.25;;;17.70;94.60;;;;;;5069220;28;20035;-71
2021/10/20 12:39:18;;;;;;;1.83;0.68;;;17.90;94.20;;;;;;5068650;28;20032;-71
2021/10/20 12:41:46;;;;;;;0.10;0.10;;;18.10;93.50;;;;;;5068937;28;20021;-72
2021/10/20 12:44:12;;;;;;;0.85;0.38;;;18.40;92.80;;;;;;5069137;28;20024;-72
2021/10/20 12:46:43;;;;;;;0.80;0.45;;;18.60;92.20;;;;;;5068458;28;20146;-71